Time;durP1;ratioP1;P1;durP2;ratioP2;P2;SDS_P1;SDS_P2;PMS_P1;PMS_P2;Temp;Humidity;BMP_temperature;BMP_pressure;BME280_temperature;BME280_humidity;BME280_pressure;Samples;Min_cycle;Max_cycle;Signal;HPM_P1;HPM_P2
2022/09/13 00:00:55;;;;;;;;;;;19.10;82.60;;;;;;5046405;28;19925;-67
2022/09/13 00:03:21;;;;;;;;;;;19.10;82.60;;;;;;5063718;28;20358;-67
2022/09/13 00:05:47;;;;;;;;;;;19.10;82.60;;;;;;5064324;28;19916;-67
2022/09/13 00:08:12;;;;;;;;;;;19.00;82.50;;;;;;5047902;28;19920;-67
2022/09/13 00:10:39;;;;;;;;;;;19.00;82.70;;;;;;5064315;28;19920;-67
2022/09/13 00:13:05;;;;;;;;;;;19.00;82.40;;;;;;5063303;28;19922;-67
2022/09/13 00:15:31;;;;;;;;;;;19.00;82.70;;;;;;5063404;28;20389;-67
2022/09/13 00:17:57;;;;;;;;;;;19.00;82.60;;;;;;5065382;28;19920;-67
2022/09/13 00:20:22;;;;;;;;;;;19.00;82.60;;;;;;5064104;28;19912;-67
2022/09/13 00:22:48;;;;;;;;;;;18.90;82.70;;;;;;5065102;28;19923;-67
2022/09/13 00:25:13;;;;;;;;;;;18.90;82.70;;;;;;5066589;28;19920;-67
2022/09/13 00:27:39;;;;;;;;;;;18.90;82.80;;;;;;5063365;28;20018;-67
2022/09/13 00:30:05;;;;;;;;;;;18.90;82.80;;;;;;5065692;28;19962;-67
2022/09/13 00:32:32;;;;;;;;;;;18.90;82.90;;;;;;5044026;28;19916;-67
2022/09/13 00:34:58;;;;;;;;;;;18.90;82.90;;;;;;5065886;28;19935;-67
2022/09/13 00:37:23;;;;;;;;;;;18.90;82.90;;;;;;5062892;28;20358;-67
2022/09/13 00:39:49;;;;;;;;;;;18.90;82.90;;;;;;5063741;28;19919;-67
2022/09/13 00:42:14;;;;;;;;;;;18.90;83.00;;;;;;5062375;28;20429;-67
2022/09/13 00:44:59;;;;;;;;;;;18.90;82.90;;;;;;5065047;28;19920;-67
2022/09/13 00:47:30;;;;;;;;;;;18.90;83.10;;;;;;5059586;28;19916;-67
2022/09/13 00:50:01;;;;;;;;;;;18.90;82.90;;;;;;5066062;28;19927;-67
2022/09/13 00:52:28;;;;;;;;;;;18.90;83.00;;;;;;5053019;28;19927;-67
2022/09/13 00:55:01;;;;;;;;;;;18.90;83.20;;;;;;5066218;28;19912;-67
2022/09/13 00:57:27;;;;;;;;;;;18.80;83.10;;;;;;5062770;28;19916;-67
2022/09/13 01:00:08;;;;;;;;;;;18.80;83.20;;;;;;5047987;28;19913;-67
2022/09/13 01:02:34;;;;;;;;;;;18.80;83.00;;;;;;5060556;28;19916;-67
2022/09/13 01:04:59;;;;;;;;;;;18.80;83.10;;;;;;5065686;28;20037;-67
2022/09/13 01:07:24;;;;;;;;;;;18.80;83.00;;;;;;5062874;28;20526;-67
2022/09/13 01:09:51;;;;;;;;;;;18.80;83.00;;;;;;5065027;28;19956;-67
2022/09/13 01:12:24;;;;;;;;;;;18.80;83.00;;;;;;5045135;28;20347;-67
2022/09/13 01:14:50;;;;;;;;;;;18.80;83.10;;;;;;5062799;28;19923;-67
2022/09/13 01:17:16;;;;;;;;;;;18.80;83.00;;;;;;5060984;28;20450;-68
2022/09/13 01:19:41;;;;;;;;;;;18.80;83.10;;;;;;5062780;28;19924;-67
2022/09/13 01:22:22;;;;;;;;;;;18.80;83.00;;;;;;5061855;28;19916;-67
2022/09/13 01:24:54;;;;;;;;;;;18.80;82.90;;;;;;5062203;28;19924;-67
2022/09/13 01:27:29;;;;;;;;;;;18.80;83.00;;;;;;5064770;28;19952;-68
2022/09/13 01:30:03;;;;;;;;;;;18.80;83.10;;;;;;5062605;28;20414;-69
2022/09/13 01:32:32;;;;;;;;;;;18.80;83.70;;;;;;5062720;28;19977;-67
2022/09/13 01:35:09;;;;;;;;;;;18.80;83.20;;;;;;5062888;28;19917;-67
2022/09/13 01:37:38;;;;;;;;;;;18.80;83.20;;;;;;5063409;28;19920;-68
2022/09/13 01:40:22;;;;;;;;;;;18.80;83.20;;;;;;5063346;28;19917;-67
2022/09/13 01:43:07;;;;;;;;;;;18.70;82.90;;;;;;5063006;28;19921;-68
2022/09/13 01:45:41;;;;;;;;;;;18.70;82.80;;;;;;5062661;28;19923;-67
2022/09/13 01:48:16;;;;;;;;;;;18.70;83.00;;;;;;5059633;28;19942;-68
2022/09/13 01:50:44;;;;;;;;;;;18.70;83.10;;;;;;5044602;28;19931;-67
2022/09/13 01:53:19;;;;;;;;;;;18.70;83.10;;;;;;5061561;28;20292;-67
2022/09/13 01:55:51;;;;;;;;;;;18.70;82.90;;;;;;5062458;28;19955;-67
2022/09/13 01:58:23;;;;;;;;;;;18.70;83.00;;;;;;5062334;28;20373;-67
2022/09/13 02:00:52;;;;;;;;;;;18.70;83.00;;;;;;5061462;28;20484;-67
2022/09/13 02:03:28;;;;;;;;;;;18.60;83.10;;;;;;5061629;28;19969;-67
2022/09/13 02:06:03;;;;;;;;;;;18.60;83.30;;;;;;5057977;28;19916;-67
2022/09/13 02:08:32;;;;;;;;;;;18.70;83.10;;;;;;5059831;28;19919;-67
2022/09/13 02:11:00;;;;;;;;;;;18.60;83.10;;;;;;5060910;28;19917;-67
2022/09/13 02:13:29;;;;;;;;;;;18.60;83.10;;;;;;5064133;28;19912;-67
2022/09/13 02:16:01;;;;;;;;;;;18.60;82.90;;;;;;5061256;28;19916;-67
2022/09/13 02:18:32;;;;;;;;;;;18.60;83.10;;;;;;5046465;28;19916;-67
2022/09/13 02:21:01;;;;;;;;;;;18.60;83.10;;;;;;5060149;28;19920;-68
2022/09/13 02:23:33;;;;;;;;;;;18.60;83.10;;;;;;5062879;28;19965;-68
2022/09/13 02:25:59;;;;;;;;;;;18.60;83.10;;;;;;5062247;28;19923;-67
2022/09/13 02:28:31;;;;;;;;;;;18.60;83.10;;;;;;5062579;28;19959;-67
2022/09/13 02:30:58;;;;;;;;;;;18.60;83.10;;;;;;5061328;28;19919;-68
2022/09/13 02:33:27;;;;;;;;;;;18.60;83.10;;;;;;5062850;28;19989;-68
2022/09/13 02:35:53;;;;;;;;;;;18.60;83.10;;;;;;5062079;28;19916;-67
2022/09/13 02:38:24;;;;;;;;;;;18.60;83.10;;;;;;5060067;28;20453;-68
2022/09/13 02:40:56;;;;;;;;;;;18.60;83.20;;;;;;5061469;28;19919;-68
2022/09/13 02:43:26;;;;;;;;;;;18.60;83.10;;;;;;5060549;28;19977;-68
2022/09/13 02:45:58;;;;;;;;;;;18.60;83.10;;;;;;5060368;28;19921;-67
2022/09/13 02:48:37;;;;;;;;;;;18.60;83.10;;;;;;5063358;28;19924;-68
2022/09/13 02:51:06;;;;;;;;;;;18.60;83.20;;;;;;5059488;28;19913;-67
2022/09/13 02:53:44;;;;;;;;;;;18.60;83.10;;;;;;5062157;28;19923;-67
2022/09/13 02:56:22;;;;;;;;;;;18.60;83.20;;;;;;5063117;28;20013;-68
2022/09/13 02:58:57;;;;;;;;;;;18.60;83.10;;;;;;5061858;28;19920;-67
2022/09/13 03:01:23;;;;;;;;;;;18.60;83.20;;;;;;5062803;28;19920;-67
2022/09/13 03:03:50;;;;;;;;;;;18.60;83.20;;;;;;5060021;28;20544;-67
2022/09/13 03:06:23;;;;;;;;;;;18.60;83.10;;;;;;5061931;28;19923;-67
2022/09/13 03:08:48;;;;;;;;;;;18.60;83.20;;;;;;5062749;28;19924;-67
2022/09/13 03:11:40;;;;;;;;;;;18.60;83.00;;;;;;5065819;28;19919;-67
2022/09/13 03:14:05;;;;;;;;;;;18.60;83.80;;;;;;5061043;28;19956;-67
2022/09/13 03:16:34;;;;;;;;;;;18.60;83.00;;;;;;5067376;28;19952;-67
2022/09/13 03:18:59;;;;;;;;;;;18.50;83.10;;;;;;5063061;28;20341;-67
2022/09/13 03:21:31;;;;;;;;;;;18.60;83.10;;;;;;5066895;28;20016;-67
2022/09/13 03:23:57;;;;;;;;;;;18.60;83.20;;;;;;5064292;28;19962;-67
2022/09/13 03:26:22;;;;;;;;;;;18.60;83.10;;;;;;5066059;28;19927;-67
2022/09/13 03:28:51;;;;;;;;;;;18.60;83.10;;;;;;5062865;28;19916;-67
2022/09/13 03:31:31;;;;;;;;;;;18.60;83.00;;;;;;5065909;28;19912;-67
2022/09/13 03:34:02;;;;;;;;;;;18.60;83.10;;;;;;5045290;28;20352;-67
2022/09/13 03:36:31;;;;;;;;;;;18.60;83.00;;;;;;5049114;28;19919;-67
2022/09/13 03:39:02;;;;;;;;;;;18.60;82.90;;;;;;5061245;28;20005;-67
2022/09/13 03:41:38;;;;;;;;;;;18.60;82.90;;;;;;5064882;28;20007;-67
2022/09/13 03:44:07;;;;;;;;;;;18.60;82.90;;;;;;5060720;28;19927;-67
2022/09/13 03:46:34;;;;;;;;;;;18.50;82.80;;;;;;5063137;28;20695;-67
2022/09/13 03:49:02;;;;;;;;;;;18.60;82.90;;;;;;5062831;28;19917;-67
2022/09/13 03:51:28;;;;;;;;;;;18.50;82.70;;;;;;5063678;28;19982;-67
2022/09/13 03:53:59;;;;;;;;;;;18.50;82.80;;;;;;5064141;28;19916;-67
2022/09/13 03:56:24;;;;;;;;;;;18.60;82.90;;;;;;5066530;28;19916;-67
2022/09/13 03:58:50;;;;;;;;;;;18.60;82.90;;;;;;5062194;28;19966;-67
2022/09/13 04:01:18;;;;;;;;;;;18.60;82.90;;;;;;5064849;28;19908;-67
2022/09/13 04:03:44;;;;;;;;;;;18.50;83.00;;;;;;5063553;28;19917;-67
2022/09/13 04:06:09;;;;;;;;;;;18.50;82.90;;;;;;5063793;28;19916;-67
2022/09/13 04:08:34;;;;;;;;;;;18.60;83.00;;;;;;5066072;28;19978;-67
2022/09/13 04:11:00;;;;;;;;;;;18.50;83.00;;;;;;5063254;28;20375;-67
2022/09/13 04:13:26;;;;;;;;;;;18.50;82.90;;;;;;5066219;28;19919;-67
2022/09/13 04:15:51;;;;;;;;;;;18.50;83.10;;;;;;5063672;28;19927;-67
2022/09/13 04:18:17;;;;;;;;;;;18.50;82.90;;;;;;5065517;28;19916;-67
2022/09/13 04:20:43;;;;;;;;;;;18.50;82.90;;;;;;5062932;28;20285;-67
2022/09/13 04:23:08;;;;;;;;;;;18.50;83.10;;;;;;5062096;28;20639;-67
2022/09/13 04:25:37;;;;;;;;;;;18.50;83.10;;;;;;5063720;28;20469;-67
2022/09/13 04:28:02;;;;;;;;;;;18.50;83.10;;;;;;5062108;28;20423;-67
2022/09/13 04:30:28;;;;;;;;;;;18.50;83.20;;;;;;5063631;28;19923;-67
2022/09/13 04:32:55;;;;;;;;;;;18.50;83.20;;;;;;5064084;28;20045;-67
2022/09/13 04:35:21;;;;;;;;;;;18.50;83.10;;;;;;5063817;28;19921;-67
2022/09/13 04:37:46;;;;;;;;;;;18.40;83.10;;;;;;5061988;28;19959;-67
2022/09/13 04:40:13;;;;;;;;;;;18.40;83.20;;;;;;5063293;28;19959;-67
2022/09/13 04:42:38;;;;;;;;;;;18.40;83.20;;;;;;5062960;28;19970;-68
2022/09/13 04:45:05;;;;;;;;;;;18.40;83.30;;;;;;5048140;28;19951;-67
2022/09/13 04:47:31;;;;;;;;;;;18.40;83.20;;;;;;5043957;28;19920;-67
2022/09/13 04:49:56;;;;;;;;;;;18.40;83.30;;;;;;5065405;28;20483;-67
2022/09/13 04:52:22;;;;;;;;;;;18.40;83.30;;;;;;5061367;28;19920;-67
2022/09/13 04:54:48;;;;;;;;;;;18.40;83.30;;;;;;5065889;28;19930;-68
2022/09/13 04:57:14;;;;;;;;;;;18.40;83.30;;;;;;5061457;28;20015;-67
2022/09/13 04:59:39;;;;;;;;;;;18.40;83.40;;;;;;5065105;28;19995;-67
2022/09/13 05:02:05;;;;;;;;;;;18.40;83.30;;;;;;5061500;28;19935;-67
2022/09/13 05:04:30;;;;;;;;;;;18.40;83.40;;;;;;5063366;28;19916;-67
2022/09/13 05:06:57;;;;;;;;;;;18.40;83.60;;;;;;5063091;28;20364;-67
2022/09/13 05:09:23;;;;;;;;;;;18.40;83.50;;;;;;5064690;28;20262;-67
2022/09/13 05:11:48;;;;;;;;;;;18.40;83.40;;;;;;5059980;28;19950;-67
2022/09/13 05:14:14;;;;;;;;;;;18.40;83.40;;;;;;5065272;28;19920;-67
2022/09/13 05:16:39;;;;;;;;;;;18.40;83.40;;;;;;5062445;28;19916;-68
2022/09/13 05:19:05;;;;;;;;;;;18.40;83.50;;;;;;5064078;28;19923;-67
2022/09/13 05:21:30;;;;;;;;;;;18.40;83.60;;;;;;5062629;28;19962;-68
2022/09/13 05:23:56;;;;;;;;;;;18.40;83.50;;;;;;5061873;28;19917;-67
2022/09/13 05:26:23;;;;;;;;;;;18.30;83.50;;;;;;5065277;28;19908;-67
2022/09/13 05:28:49;;;;;;;;;;;18.30;83.60;;;;;;5061778;28;20015;-67
2022/09/13 05:31:16;;;;;;;;;;;18.30;83.50;;;;;;5063776;28;19961;-67
2022/09/13 05:33:41;;;;;;;;;;;18.40;83.60;;;;;;5059876;28;20538;-67
2022/09/13 05:36:07;;;;;;;;;;;18.30;83.60;;;;;;5065173;28;19919;-67
2022/09/13 05:38:32;;;;;;;;;;;18.30;83.60;;;;;;5060413;28;19923;-67
2022/09/13 05:40:59;;;;;;;;;;;18.40;83.60;;;;;;5065154;28;20334;-67
2022/09/13 05:43:26;;;;;;;;;;;18.40;83.70;;;;;;5043327;28;20343;-67
2022/09/13 05:46:01;;;;;;;;;;;18.30;83.50;;;;;;5064629;28;20436;-67
2022/09/13 05:48:27;;;;;;;;;;;18.30;83.50;;;;;;5058631;28;19920;-67
2022/09/13 05:50:52;;;;;;;;;;;18.40;83.40;;;;;;5064485;28;19985;-67
2022/09/13 05:53:18;;;;;;;;;;;18.40;83.40;;;;;;5058217;28;19916;-67
2022/09/13 05:55:43;;;;;;;;;;;18.40;83.50;;;;;;5064930;28;19958;-67
2022/09/13 05:58:09;;;;;;;;;;;18.40;83.50;;;;;;5064371;28;19917;-67
2022/09/13 06:00:34;;;;;;;;;;;18.40;83.60;;;;;;5062062;28;20284;-67
2022/09/13 06:03:00;;;;;;;;;;;18.40;83.30;;;;;;5063495;28;20417;-68
2022/09/13 06:05:25;;;;;;;;;;;18.40;83.50;;;;;;5062388;28;19916;-67
2022/09/13 06:07:51;;;;;;;;;;;18.40;83.50;;;;;;5062432;28;20270;-67
2022/09/13 06:10:16;;;;;;;;;;;18.40;83.40;;;;;;5062361;28;19912;-67
2022/09/13 06:12:42;;;;;;;;;;;18.40;83.30;;;;;;5045084;28;19912;-67
2022/09/13 06:15:08;;;;;;;;;;;18.40;83.30;;;;;;5060063;28;20370;-68
2022/09/13 06:17:33;;;;;;;;;;;18.40;83.30;;;;;;5063124;28;19916;-67
2022/09/13 06:19:59;;;;;;;;;;;18.40;83.30;;;;;;5062067;28;19923;-68
2022/09/13 06:22:24;;;;;;;;;;;18.40;83.40;;;;;;5063526;28;20372;-67
2022/09/13 06:24:50;;;;;;;;;;;18.40;83.30;;;;;;5061992;28;20097;-67
2022/09/13 06:27:15;;;;;;;;;;;18.40;83.30;;;;;;5064784;28;19977;-67
2022/09/13 06:29:40;;;;;;;;;;;18.40;83.30;;;;;;5060022;28;19920;-67
2022/09/13 06:32:06;;;;;;;;;;;18.50;83.30;;;;;;5064116;28;20464;-67
2022/09/13 06:34:32;;;;;;;;;;;18.50;83.20;;;;;;5062374;28;19919;-67
2022/09/13 06:36:58;;;;;;;;;;;18.50;83.20;;;;;;5061693;28;19913;-67
2022/09/13 06:39:23;;;;;;;;;;;18.50;83.30;;;;;;5063429;28;19935;-67
2022/09/13 06:41:49;;;;;;;;;;;18.50;83.20;;;;;;5061055;28;19989;-67
2022/09/13 06:44:14;;;;;;;;;;;18.50;83.10;;;;;;5067708;28;19924;-67
2022/09/13 06:46:40;;;;;;;;;;;18.50;83.00;;;;;;5065637;28;19928;-67
2022/09/13 06:49:06;;;;;;;;;;;18.50;83.10;;;;;;5066515;28;19912;-67
2022/09/13 06:51:32;;;;;;;;;;;18.50;83.10;;;;;;5063798;28;20011;-68
2022/09/13 06:53:58;;;;;;;;;;;18.60;83.10;;;;;;5065697;28;20334;-68
2022/09/13 06:56:29;;;;;;;;;;;18.60;83.10;;;;;;5065896;28;19940;-68
2022/09/13 06:58:56;;;;;;;;;;;18.60;83.00;;;;;;5065110;28;20272;-67
2022/09/13 07:01:24;;;;;;;;;;;18.60;83.00;;;;;;5063003;28;19913;-68
2022/09/13 07:03:51;;;;;;;;;;;18.60;82.90;;;;;;5061578;28;20368;-68
2022/09/13 07:06:17;;;;;;;;;;;18.60;82.90;;;;;;5063153;28;19987;-68
2022/09/13 07:08:43;;;;;;;;;;;18.60;82.90;;;;;;5065490;28;19987;-68
2022/09/13 07:11:10;;;;;;;;;;;18.60;82.80;;;;;;5064923;28;19916;-68
2022/09/13 07:13:36;;;;;;;;;;;18.70;82.80;;;;;;5065050;28;20069;-68
2022/09/13 07:16:02;;;;;;;;;;;18.70;82.70;;;;;;5065934;28;20664;-68
2022/09/13 07:18:28;;;;;;;;;;;18.70;82.70;;;;;;5064218;28;19913;-67
2022/09/13 07:21:04;;;;;;;;;;;18.80;82.60;;;;;;5067179;28;19916;-68
2022/09/13 07:23:31;;;;;;;;;;;18.80;82.60;;;;;;5064293;28;19912;-68
2022/09/13 07:26:00;;;;;;;;;;;18.80;82.60;;;;;;5049008;28;19912;-67
2022/09/13 07:28:30;;;;;;;;;;;18.80;82.50;;;;;;5060354;28;19944;-68
2022/09/13 07:30:57;;;;;;;;;;;18.80;82.40;;;;;;5049496;28;19958;-68
2022/09/13 07:33:24;;;;;;;;;;;18.80;82.40;;;;;;5062453;28;20023;-67
2022/09/13 07:35:56;;;;;;;;;;;18.80;82.40;;;;;;5063223;28;19923;-67
2022/09/13 07:38:22;;;;;;;;;;;18.90;82.20;;;;;;5061898;28;19931;-68
2022/09/13 07:40:58;;;;;;;;;;;18.90;82.20;;;;;;5067452;28;19920;-67
2022/09/13 07:43:27;;;;;;;;;;;19.00;82.20;;;;;;5061150;28;19921;-67
2022/09/13 07:46:00;;;;;;;;;;;19.00;82.00;;;;;;5061596;28;20546;-67
2022/09/13 07:48:27;;;;;;;;;;;19.10;82.20;;;;;;5062626;28;19920;-67
2022/09/13 07:51:12;;;;;;;;;;;19.10;82.00;;;;;;5066131;28;19912;-67
2022/09/13 07:53:38;;;;;;;;;;;19.20;82.00;;;;;;5062075;28;20474;-67
2022/09/13 07:56:05;;;;;;;;;;;19.10;81.80;;;;;;5066131;28;20479;-68
2022/09/13 07:58:31;;;;;;;;;;;19.20;81.80;;;;;;5063886;28;19917;-67
2022/09/13 08:01:03;;;;;;;;;;;19.20;81.80;;;;;;5064919;28;20462;-68
2022/09/13 08:03:29;;;;;;;;;;;19.30;81.70;;;;;;5059319;28;19924;-68
2022/09/13 08:05:54;;;;;;;;;;;19.30;81.50;;;;;;5066067;28;20563;-67
2022/09/13 08:08:20;;;;;;;;;;;19.40;81.50;;;;;;5063491;28;20049;-67
2022/09/13 08:10:45;;;;;;;;;;;19.40;81.30;;;;;;5066441;28;19919;-67
2022/09/13 08:13:11;;;;;;;;;;;19.50;81.60;;;;;;5063227;28;20481;-67
2022/09/13 08:15:36;;;;;;;;;;;19.50;81.50;;;;;;5062705;28;19912;-67
2022/09/13 08:18:04;;;;;;;;;;;19.50;81.20;;;;;;5066120;28;19966;-67
2022/09/13 08:20:29;;;;;;;;;;;19.50;81.20;;;;;;5063794;28;19916;-67
2022/09/13 08:22:55;;;;;;;;;;;19.60;81.10;;;;;;5065712;28;19913;-67
2022/09/13 08:25:20;;;;;;;;;;;19.60;81.40;;;;;;5063846;28;19973;-68
2022/09/13 08:27:46;;;;;;;;;;;19.70;81.20;;;;;;5066367;28;19938;-67
2022/09/13 08:30:12;;;;;;;;;;;19.70;81.00;;;;;;5063466;28;19913;-68
2022/09/13 08:32:37;;;;;;;;;;;19.70;81.10;;;;;;5062749;28;20029;-67
2022/09/13 08:35:03;;;;;;;;;;;19.80;80.80;;;;;;5063229;28;19916;-67
2022/09/13 08:37:28;;;;;;;;;;;19.80;80.70;;;;;;5065271;28;19919;-68
2022/09/13 08:39:54;;;;;;;;;;;19.80;80.70;;;;;;5059355;28;19939;-68
2022/09/13 08:42:24;;;;;;;;;;;19.90;80.70;;;;;;5063861;28;19919;-68
2022/09/13 08:44:54;;;;;;;;;;;19.90;80.60;;;;;;5057650;28;19920;-68
2022/09/13 08:47:26;;;;;;;;;;;19.90;80.60;;;;;;5066052;28;20007;-67
2022/09/13 08:49:58;;;;;;;;;;;19.90;80.50;;;;;;5060153;28;20464;-68
2022/09/13 08:52:28;;;;;;;;;;;20.00;80.50;;;;;;5061854;28;19916;-67
2022/09/13 08:54:54;;;;;;;;;;;20.00;80.50;;;;;;5065479;28;19920;-68
2022/09/13 08:57:49;;;;;;;;;;;20.00;80.30;;;;;;5058634;28;19916;-68
2022/09/13 09:00:19;;;;;;;;;;;20.10;80.50;;;;;;4988735;28;20028;-68
2022/09/13 09:02:54;;;;;;;;;;;20.10;80.50;;;;;;5059710;28;20330;-68
2022/09/13 09:05:24;;;;;;;;;;;20.10;80.30;;;;;;5064401;28;19913;-68
2022/09/13 09:07:56;;;;;;;;;;;20.10;80.30;;;;;;5064570;28;19931;-68
2022/09/13 09:10:22;;;;;;;;;;;20.10;80.20;;;;;;5062920;28;19917;-68
2022/09/13 09:12:53;;;;;;;;;;;20.20;80.30;;;;;;5062753;28;19916;-68
2022/09/13 09:15:21;;;;;;;;;;;20.20;80.30;;;;;;5064534;28;20336;-68
2022/09/13 09:17:59;;;;;;;;;;;20.20;80.80;;;;;;5062963;28;19917;-68
2022/09/13 09:20:47;;;;;;;;;;;20.30;80.20;;;;;;5064604;28;19912;-67
2022/09/13 09:23:20;;;;;;;;;;;20.30;80.10;;;;;;5051913;28;19980;-67
2022/09/13 09:25:46;;;;;;;;;;;20.30;80.10;;;;;;5065372;28;20783;-68
2022/09/13 09:28:16;;;;;;;;;;;20.30;79.90;;;;;;5062163;28;19931;-68
2022/09/13 09:31:03;;;;;;;;;;;20.40;80.00;;;;;;5064596;28;19935;-67
2022/09/13 09:33:35;;;;;;;;;;;20.40;79.90;;;;;;5059526;28;20723;-68
2022/09/13 09:36:05;;;;;;;;;;;20.40;79.80;;;;;;5065229;28;19913;-67
2022/09/13 09:38:42;;;;;;;;;;;20.50;79.90;;;;;;5054754;28;19920;-68
2022/09/13 09:41:24;;;;;;;;;;;20.50;79.60;;;;;;5063934;28;19977;-68
2022/09/13 09:43:55;;;;;;;;;;;20.60;79.70;;;;;;5058087;28;20428;-68
2022/09/13 09:46:23;;;;;;;;;;;20.60;79.50;;;;;;5063633;28;19919;-67
2022/09/13 09:48:51;;;;;;;;;;;20.70;80.10;;;;;;5062043;28;19924;-68
2022/09/13 09:51:17;;;;;;;;;;;20.70;79.30;;;;;;5065136;28;19966;-68
2022/09/13 09:53:46;;;;;;;;;;;20.80;79.60;;;;;;5058939;28;20003;-67
2022/09/13 09:56:18;;;;;;;;;;;20.80;79.30;;;;;;5064712;28;19920;-68
2022/09/13 09:58:45;;;;;;;;;;;20.80;79.20;;;;;;5061822;28;19924;-68
2022/09/13 10:01:31;;;;;;;;;;;20.90;79.30;;;;;;5064569;28;19980;-68
2022/09/13 10:04:11;;;;;;;;;;;20.90;78.90;;;;;;5058773;28;20646;-67
2022/09/13 10:06:38;;;;;;;;;;;21.00;79.90;;;;;;5064770;28;19912;-67
2022/09/13 10:09:04;;;;;;;;;;;21.10;79.10;;;;;;5061898;28;19974;-67
2022/09/13 10:11:37;;;;;;;;;;;21.10;78.80;;;;;;5064514;28;19909;-68
2022/09/13 10:14:03;;;;;;;;;;;21.20;78.90;;;;;;5061714;28;20416;-68
2022/09/13 10:16:29;;;;;;;;;;;21.30;78.50;;;;;;5061904;28;19913;-68
2022/09/13 10:19:15;;;;;;;;;;;21.30;78.80;;;;;;5065287;28;20010;-68
2022/09/13 10:21:40;;;;;;;;;;;21.40;78.30;;;;;;5066350;28;19913;-68
2022/09/13 10:24:16;;;;;;;;;;;21.40;78.20;;;;;;5065236;28;19916;-68
2022/09/13 10:26:41;;;;;;;;;;;21.50;78.50;;;;;;5068611;28;19973;-68
2022/09/13 10:29:13;;;;;;;;;;;21.50;78.30;;;;;;5065837;28;19916;-68
2022/09/13 10:31:40;;;;;;;;;;;21.50;78.50;;;;;;5067873;28;19923;-68
2022/09/13 10:34:06;;;;;;;;;;;21.50;78.10;;;;;;5065159;28;19940;-68
2022/09/13 10:36:33;;;;;;;;;;;21.60;78.20;;;;;;5068289;28;20004;-68
2022/09/13 10:39:02;;;;;;;;;;;21.60;78.30;;;;;;5067106;28;19955;-68
2022/09/13 10:41:37;;;;;;;;;;;21.70;78.10;;;;;;5067168;28;19955;-68
2022/09/13 10:44:05;;;;;;;;;;;21.80;78.10;;;;;;5066366;28;19930;-68
2022/09/13 10:46:32;;;;;;;;;;;21.80;77.80;;;;;;5065284;28;19916;-68
2022/09/13 10:48:58;;;;;;;;;;;21.90;77.80;;;;;;5064656;28;19909;-68
2022/09/13 10:51:26;;;;;;;;;;;22.00;78.00;;;;;;5065377;28;19923;-67
2022/09/13 10:54:06;;;;;;;;;;;22.00;77.80;;;;;;5065638;28;19917;-68
2022/09/13 10:56:32;;;;;;;;;;;22.10;77.70;;;;;;5065017;28;19923;-68
2022/09/13 10:59:16;;;;;;;;;;;22.10;77.80;;;;;;5066563;28;20393;-68
2022/09/13 11:02:00;;;;;;;;;;;22.10;77.50;;;;;;5059015;28;19943;-68
2022/09/13 11:04:34;;;;;;;;;;;22.20;77.60;;;;;;5064917;28;20024;-68
2022/09/13 11:07:06;;;;;;;;;;;22.20;77.50;;;;;;5065546;28;19925;-68
2022/09/13 11:09:35;;;;;;;;;;;22.30;77.50;;;;;;5066777;28;20009;-68
2022/09/13 11:12:22;;;;;;;;;;;22.30;77.50;;;;;;5063563;28;19928;-68
2022/09/13 11:14:57;;;;;;;;;;;22.40;77.40;;;;;;5063461;28;19913;-67
2022/09/13 11:17:26;;;;;;;;;;;22.50;77.30;;;;;;5064108;28;20381;-68
2022/09/13 11:20:06;;;;;;;;;;;22.60;77.20;;;;;;5065905;28;20011;-67
2022/09/13 11:22:38;;;;;;;;;;;22.70;77.30;;;;;;5064802;28;20403;-67
2022/09/13 11:25:06;;;;;;;;;;;22.80;76.80;;;;;;5066525;28;19923;-68
2022/09/13 11:27:43;;;;;;;;;;;22.90;76.70;;;;;;5064390;28;19931;-67
2022/09/13 11:30:10;;;;;;;;;;;23.00;76.70;;;;;;5063929;28;20456;-68
2022/09/13 11:32:38;;;;;;;;;;;23.10;76.80;;;;;;5061959;28;20101;-68
2022/09/13 11:35:19;;;;;;;;;;;23.20;77.00;;;;;;5065831;28;19927;-68
2022/09/13 11:37:57;;;;;;;;;;;23.30;77.30;;;;;;5059745;28;19931;-67
2022/09/13 11:40:38;;;;;;;;;;;23.40;77.40;;;;;;5064047;28;20638;-67
2022/09/13 11:43:13;;;;;;;;;;;23.40;76.60;;;;;;5060001;28;19920;-67
2022/09/13 11:46:00;;;;;;;;;;;23.50;76.40;;;;;;5060008;28;19956;-67
2022/09/13 11:48:44;;;;;;;;;;;23.60;76.70;;;;;;5063791;28;19916;-67
2022/09/13 11:51:27;;;;;;;;;;;23.70;76.40;;;;;;5064946;28;19930;-67
2022/09/13 11:54:08;;;;;;;;;;;23.70;76.50;;;;;;5059060;28;20031;-67
2022/09/13 11:56:45;;;;;;;;;;;23.80;76.80;;;;;;5066980;28;19912;-67
2022/09/13 11:59:27;;;;;;;;;;;23.90;77.00;;;;;;5061380;28;20328;-67
2022/09/13 12:01:59;;;;;;;;;;;23.90;76.80;;;;;;5064312;28;19989;-66
2022/09/13 12:04:28;;;;;;;;;;;24.00;76.80;;;;;;5060399;28;20022;-68
2022/09/13 12:07:01;;;;;;;;;;;24.10;76.80;;;;;;5066325;28;19928;-67
2022/09/13 12:09:29;;;;;;;;;;;24.10;76.40;;;;;;5063653;28;19921;-67
2022/09/13 12:12:05;;;;;;;;;;;24.20;76.30;;;;;;5065064;28;19934;-67
2022/09/13 12:14:57;;;;;;;;;;;24.30;76.50;;;;;;5042282;28;20409;-67
2022/09/13 12:17:25;;;;;;;;;;;24.30;77.20;;;;;;5061535;28;19916;-68
2022/09/13 12:19:53;;;;;;;;;;;24.30;76.30;;;;;;5062538;28;19920;-67
2022/09/13 12:22:21;;;;;;;;;;;24.30;76.80;;;;;;5063139;28;19916;-67
2022/09/13 12:24:52;;;;;;;;;;;24.30;76.60;;;;;;5062724;28;19924;-67
2022/09/13 12:27:20;;;;;;;;;;;24.30;76.40;;;;;;5066590;28;20269;-68
2022/09/13 12:29:45;;;;;;;;;;;24.40;76.60;;;;;;5044455;28;19917;-67
2022/09/13 12:32:12;;;;;;;;;;;24.40;76.50;;;;;;5046992;28;19920;-67
2022/09/13 12:34:37;;;;;;;;;;;24.40;76.50;;;;;;5060949;28;19917;-68
2022/09/13 12:37:09;;;;;;;;;;;24.50;76.30;;;;;;5065931;28;19926;-67
2022/09/13 12:40:00;;;;;;;;;;;24.50;76.00;;;;;;5054328;28;19923;-68
2022/09/13 12:42:34;;;;;;;;;;;24.50;76.30;;;;;;5047846;28;19932;-68
2022/09/13 12:45:19;;;;;;;;;;;24.60;75.90;;;;;;5063342;28;19982;-68
2022/09/13 12:48:07;;;;;;;;;;;24.60;75.80;;;;;;5065573;28;20688;-68
2022/09/13 12:50:42;;;;;;;;;;;24.70;74.80;;;;;;5051273;28;19962;-68
2022/09/13 12:53:26;;;;;;;;;;;24.70;75.30;;;;;;5061423;28;19916;-68
2022/09/13 12:55:52;;;;;;;;;;;24.80;74.80;;;;;;5061086;28;20352;-68
2022/09/13 12:58:36;;;;;;;;;;;24.80;75.00;;;;;;5064295;28;19996;-68
2022/09/13 13:01:08;;;;;;;;;;;24.80;75.10;;;;;;5058170;28;20324;-67
2022/09/13 13:03:41;;;;;;;;;;;24.80;75.30;;;;;;5062351;28;20666;-68
2022/09/13 13:06:07;;;;;;;;;;;24.90;75.70;;;;;;5062409;28;19935;-68
2022/09/13 13:08:33;;;;;;;;;;;25.00;76.10;;;;;;5047099;28;19971;-68
2022/09/13 13:11:06;;;;;;;;;;;25.10;75.30;;;;;;5109707;27;19923;-66
2022/09/13 13:13:34;;;;;;;;;;;25.10;74.50;;;;;;5103162;28;19919;-66
2022/09/13 13:16:01;;;;;;;;;;;25.20;74.80;;;;;;5099941;28;19916;-66
2022/09/13 13:18:29;;;;;;;;;;;25.30;75.10;;;;;;5099520;28;19959;-65
2022/09/13 13:20:54;;;;;;;;;;;25.30;75.00;;;;;;5099232;28;19920;-66
2022/09/13 13:23:29;;;;;;;;;;;25.40;75.00;;;;;;5102534;28;20637;-66
2022/09/13 13:26:16;;;;;;;;;;;25.40;75.70;;;;;;5098366;28;20037;-65
2022/09/13 13:28:41;;;;;;;;;;;25.50;75.50;;;;;;5095136;28;19920;-66
2022/09/13 13:31:08;;;;;;;;;;;25.50;74.80;;;;;;5099418;28;20042;-66
2022/09/13 13:33:46;;;;;;;;;;;25.50;74.40;;;;;;5102066;28;19919;-66
2022/09/13 13:36:34;;;;;;;;;;;25.40;74.80;;;;;;5095829;28;20589;-66
2022/09/13 13:39:00;;;;;;;;;;;25.40;75.20;;;;;;5091576;28;21173;-66
2022/09/13 13:41:32;;;;;;;;;;;25.30;75.50;;;;;;5093305;28;19922;-66
2022/09/13 13:44:18;;;;;;;;;;;25.30;75.60;;;;;;5100159;28;20273;-66
2022/09/13 13:46:44;;;;;;;;;;;25.40;75.70;;;;;;5093805;28;20015;-66
2022/09/13 13:49:28;;;;;;;;;;;25.30;76.30;;;;;;5098798;28;20053;-66
2022/09/13 13:52:06;;;;;;;;;;;25.30;75.90;;;;;;5097770;28;19916;-66
2022/09/13 13:54:41;;;;;;;;;;;25.20;75.90;;;;;;5098345;28;20462;-65
2022/09/13 13:57:25;;;;;;;;;;;25.20;76.30;;;;;;5096899;28;19951;-66
2022/09/13 13:59:55;;;;;;;;;;;25.30;76.50;;;;;;5100494;28;19912;-66
2022/09/13 14:02:28;;;;;;;;;;;25.30;76.80;;;;;;5096100;28;19916;-66
2022/09/13 14:04:57;;;;;;;;;;;25.30;75.90;;;;;;5101230;28;19919;-66
2022/09/13 14:07:48;;;;;;;;;;;25.40;75.50;;;;;;5095763;28;19923;-66
2022/09/13 14:10:23;;;;;;;;;;;25.40;75.40;;;;;;5085873;28;20610;-66
2022/09/13 14:12:48;;;;;;;;;;;25.50;75.10;;;;;;5097247;28;19924;-66
2022/09/13 14:15:14;;;;;;;;;;;25.50;74.80;;;;;;5100451;28;19997;-66
2022/09/13 14:17:55;;;;;;;;;;;25.50;74.80;;;;;;5099230;28;20272;-66
2022/09/13 14:20:21;;;;;;;;;;;25.60;74.80;;;;;;5096891;28;19912;-66
2022/09/13 14:22:47;;;;;;;;;;;25.60;74.90;;;;;;5082624;28;19912;-66
2022/09/13 14:25:18;;;;;;;;;;;25.60;75.00;;;;;;5088854;28;19979;-66
2022/09/13 14:27:44;;;;;;;;;;;25.60;75.60;;;;;;5113863;27;19961;-66
2022/09/13 14:30:16;;;;;;;;;;;25.60;74.90;;;;;;5085032;28;19943;-66
2022/09/13 14:32:43;;;;;;;;;;;25.60;74.90;;;;;;5087405;28;20007;-66